Wetterdaten: Woche 09.07.18 - 15.07.18 (KW28)
Datum Zeit Temperatur Luftfeuchte Luftdruck Niederschlag Windrichtung Sonnenschein Solar Wind
09.07.2018 00:00 14,8 C 80 % 1018,0 hPa 0,0 l/m N 0,00 h 0 W/m 0,0 km/h (0 Bft)
09.07.2018 01:00 13,9 C 82 % 1017,9 hPa 0,0 l/m N 0,00 h 0 W/m 0,1 km/h (0 Bft)
09.07.2018 02:00 13,1 C 84 % 1017,8 hPa 0,0 l/m N 0,00 h 0 W/m 0,0 km/h (0 Bft)
09.07.2018 03:00 12,1 C 86 % 1017,5 hPa 0,0 l/m N 0,00 h 0 W/m 0,0 km/h (0 Bft)
09.07.2018 04:00 11,6 C 85 % 1017,2 hPa 0,0 l/m N 0,00 h 0 W/m 0,0 km/h (0 Bft)
09.07.2018 05:00 11,2 C 84 % 1017,2 hPa 0,0 l/m N 0,08 h 10 W/m 0,0 km/h (0 Bft)
09.07.2018 06:00 11,3 C 87 % 1017,4 hPa 0,0 l/m N 0,17 h 59 W/m 0,0 km/h (0 Bft)
09.07.2018 07:00 14,8 C 76 % 1017,3 hPa 0,0 l/m N-NO 0,75 h 197 W/m 3,5 km/h (1 Bft)
09.07.2018 08:00 17,8 C 67 % 1017,2 hPa 0,0 l/m N-NO 1,00 h 389 W/m 2,1 km/h (1 Bft)
09.07.2018 09:00 20,2 C 63 % 1017,2 hPa 0,0 l/m N-NO 0,83 h 444 W/m 3,6 km/h (1 Bft)
09.07.2018 10:00 22,3 C 58 % 1016,8 hPa 0,0 l/m N-NO 0,75 h 580 W/m 4,5 km/h (1 Bft)
09.07.2018 11:00 24,1 C 47 % 1016,5 hPa 0,0 l/m NO 1,00 h 793 W/m 8,6 km/h (2 Bft)
09.07.2018 12:00 25,2 C 43 % 1016,2 hPa 0,0 l/m N-NO 1,00 h 879 W/m 11,4 km/h (2 Bft)
09.07.2018 13:00 25,7 C 42 % 1015,8 hPa 0,0 l/m N-NO 0,75 h 731 W/m 10,1 km/h (2 Bft)
09.07.2018 14:00 26,1 C 40 % 1015,6 hPa 0,0 l/m O 0,50 h 620 W/m 10,3 km/h (2 Bft)
09.07.2018 15:00 26,4 C 39 % 1015,1 hPa 0,0 l/m O-SO 0,75 h 739 W/m 8,6 km/h (2 Bft)
09.07.2018 16:00 26,8 C 40 % 1014,8 hPa 0,0 l/m NO 0,58 h 582 W/m 9,0 km/h (2 Bft)
09.07.2018 17:00 26,1 C 44 % 1014,6 hPa 0,0 l/m N-NO 0,42 h 398 W/m 10,5 km/h (2 Bft)
09.07.2018 18:00 25,1 C 47 % 1014,4 hPa 0,0 l/m O-NO 0,50 h 273 W/m 13,2 km/h (3 Bft)
09.07.2018 19:00 24,5 C 48 % 1014,3 hPa 0,0 l/m NO 0,75 h 163 W/m 9,3 km/h (2 Bft)
09.07.2018 20:00 23,1 C 52 % 1014,4 hPa 0,0 l/m N 0,17 h 37 W/m 10,5 km/h (2 Bft)
09.07.2018 21:00 20,5 C 61 % 1014,5 hPa 0,0 l/m N 0,00 h 7 W/m 2,7 km/h (1 Bft)
09.07.2018 22:00 18,6 C 68 % 1014,8 hPa 0,0 l/m N 0,00 h 0 W/m 0,3 km/h (0 Bft)
09.07.2018 23:00 17,9 C 69 % 1014,9 hPa 0,0 l/m N 0,00 h 0 W/m 0,4 km/h (0 Bft)
10.07.2018 00:00 17,2 C 69 % 1014,8 hPa 0,0 l/m N 0,00 h 0 W/m 1,2 km/h (1 Bft)
10.07.2018 01:00 16,1 C 73 % 1014,5 hPa 0,0 l/m N 0,00 h 0 W/m 0,0 km/h (0 Bft)
10.07.2018 02:00 15,9 C 71 % 1014,1 hPa 0,0 l/m N 0,00 h 0 W/m 1,9 km/h (1 Bft)
10.07.2018 03:00 16,3 C 69 % 1013,7 hPa 0,0 l/m N 0,00 h 0 W/m 1,5 km/h (1 Bft)
10.07.2018 04:00 16,2 C 68 % 1013,2 hPa 0,0 l/m N 0,00 h 0 W/m 1,1 km/h (0 Bft)
10.07.2018 05:00 15,7 C 69 % 1013,0 hPa 0,0 l/m N 0,00 h 9 W/m 0,3 km/h (0 Bft)
10.07.2018 06:00 15,2 C 74 % 1013,0 hPa 0,0 l/m N 0,00 h 42 W/m 0,0 km/h (0 Bft)
10.07.2018 07:00 16,0 C 72 % 1013,0 hPa 0,0 l/m N 0,00 h 80 W/m 0,7 km/h (0 Bft)
10.07.2018 08:00 16,7 C 71 % 1012,9 hPa 0,0 l/m N 0,08 h 180 W/m 0,8 km/h (0 Bft)
10.07.2018 09:00 17,7 C 70 % 1012,8 hPa 0,0 l/m N 0,08 h 236 W/m 5,1 km/h (1 Bft)
10.07.2018 10:00 18,0 C 70 % 1012,7 hPa 0,0 l/m N 0,00 h 236 W/m 5,2 km/h (1 Bft)
10.07.2018 11:00 19,1 C 68 % 1012,5 hPa 0,0 l/m NW 0,08 h 392 W/m 5,3 km/h (1 Bft)
10.07.2018 12:00 20,4 C 62 % 1012,3 hPa 0,0 l/m W-NW 0,83 h 531 W/m 11,7 km/h (2 Bft)
10.07.2018 13:00 21,1 C 61 % 1011,8 hPa 0,0 l/m W 0,42 h 520 W/m 11,1 km/h (2 Bft)
10.07.2018 14:00 21,3 C 59 % 1011,4 hPa 0,0 l/m W-NW 0,33 h 359 W/m 10,6 km/h (2 Bft)
10.07.2018 15:00 22,0 C 57 % 1011,0 hPa 0,0 l/m N 0,25 h 401 W/m 16,9 km/h (3 Bft)
10.07.2018 16:00 20,0 C 66 % 1011,4 hPa 0,0 l/m N-NW 0,00 h 209 W/m 19,2 km/h (3 Bft)
10.07.2018 17:00 19,3 C 64 % 1011,7 hPa 0,0 l/m N-NW 0,08 h 204 W/m 20,0 km/h (4 Bft)
10.07.2018 18:00 19,2 C 68 % 1011,7 hPa 0,0 l/m NW 0,33 h 273 W/m 11,3 km/h (2 Bft)
10.07.2018 19:00 19,0 C 70 % 1011,7 hPa 0,0 l/m N-NO 0,33 h 132 W/m 7,4 km/h (2 Bft)
10.07.2018 20:00 18,2 C 73 % 1012,0 hPa 0,0 l/m N-NO 0,00 h 16 W/m 3,5 km/h (1 Bft)
10.07.2018 21:00 17,5 C 70 % 1012,5 hPa 0,0 l/m N-NO 0,00 h 5 W/m 6,3 km/h (2 Bft)
10.07.2018 22:00 16,6 C 71 % 1012,8 hPa 0,0 l/m N-NO 0,00 h 0 W/m 2,7 km/h (1 Bft)
10.07.2018 23:00 15,3 C 77 % 1012,8 hPa 0,0 l/m N 0,00 h 0 W/m 0,0 km/h (0 Bft)
11.07.2018 00:00 13,9 C 81 % 1013,0 hPa 0,0 l/m N 0,00 h 0 W/m 0,3 km/h (0 Bft)
11.07.2018 01:00 14,1 C 77 % 1012,6 hPa 0,0 l/m N 0,00 h 0 W/m 0,9 km/h (0 Bft)
11.07.2018 02:00 13,8 C 76 % 1012,4 hPa 0,0 l/m N 0,00 h 0 W/m 1,2 km/h (1 Bft)
11.07.2018 03:00 13,1 C 77 % 1012,4 hPa 0,0 l/m NW 0,00 h 0 W/m 6,3 km/h (2 Bft)
11.07.2018 04:00 12,6 C 78 % 1012,4 hPa 0,0 l/m NW 0,00 h 0 W/m 4,3 km/h (1 Bft)
11.07.2018 05:00 11,7 C 81 % 1012,4 hPa 0,0 l/m N 0,08 h 11 W/m 0,4 km/h (0 Bft)
11.07.2018 06:00 11,8 C 83 % 1012,6 hPa 0,0 l/m N 0,00 h 43 W/m 0,5 km/h (0 Bft)
11.07.2018 07:00 12,6 C 82 % 1012,8 hPa 0,0 l/m W-NW 0,67 h 194 W/m 2,8 km/h (1 Bft)
11.07.2018 08:00 14,3 C 78 % 1012,9 hPa 0,0 l/m W-NW 0,92 h 386 W/m 9,1 km/h (2 Bft)
11.07.2018 09:00 15,5 C 74 % 1013,1 hPa 0,0 l/m N-NW 0,25 h 280 W/m 10,8 km/h (2 Bft)
11.07.2018 10:00 16,5 C 70 % 1013,0 hPa 0,0 l/m NW 0,33 h 405 W/m 10,6 km/h (2 Bft)
11.07.2018 11:00 16,9 C 68 % 1012,9 hPa 0,0 l/m NW 0,25 h 479 W/m 11,4 km/h (2 Bft)
11.07.2018 12:00 17,9 C 61 % 1013,0 hPa 0,0 l/m W-NW 0,17 h 382 W/m 13,2 km/h (3 Bft)
11.07.2018 13:00 17,7 C 63 % 1013,1 hPa 0,0 l/m N-NO 0,08 h 327 W/m 11,5 km/h (2 Bft)
11.07.2018 14:00 18,7 C 58 % 1013,1 hPa 0,0 l/m N-NW 0,33 h 449 W/m 15,3 km/h (3 Bft)
11.07.2018 15:00 19,3 C 54 % 1013,1 hPa 0,0 l/m W-NW 0,50 h 468 W/m 15,2 km/h (3 Bft)
11.07.2018 16:00 19,5 C 55 % 1013,2 hPa 0,0 l/m NW 0,33 h 409 W/m 15,0 km/h (3 Bft)
11.07.2018 17:00 19,3 C 55 % 1013,2 hPa 0,0 l/m N 0,42 h 360 W/m 15,3 km/h (3 Bft)
11.07.2018 18:00 19,5 C 53 % 1013,5 hPa 0,0 l/m N-NO 0,67 h 316 W/m 13,5 km/h (3 Bft)
11.07.2018 19:00 18,9 C 55 % 1013,9 hPa 0,0 l/m N-NO 0,92 h 191 W/m 14,0 km/h (3 Bft)
11.07.2018 20:00 17,5 C 60 % 1014,2 hPa 0,0 l/m N 0,67 h 62 W/m 8,7 km/h (2 Bft)
11.07.2018 21:00 16,1 C 66 % 1014,5 hPa 0,0 l/m N 0,17 h 12 W/m 0,0 km/h (0 Bft)
11.07.2018 22:00 13,9 C 77 % 1014,8 hPa 0,0 l/m N 0,00 h 0 W/m 0,0 km/h (0 Bft)
11.07.2018 23:00 12,1 C 83 % 1015,1 hPa 0,0 l/m N 0,00 h 0 W/m 0,0 km/h (0 Bft)
12.07.2018 00:00 11,2 C 86 % 1015,1 hPa 0,0 l/m N 0,00 h 0 W/m 0,0 km/h (0 Bft)
12.07.2018 01:00 10,3 C 88 % 1014,8 hPa 0,0 l/m N 0,00 h 0 W/m 0,0 km/h (0 Bft)
12.07.2018 02:00 9,8 C 90 % 1014,9 hPa 0,0 l/m N 0,00 h 0 W/m 0,5 km/h (0 Bft)
12.07.2018 03:00 9,3 C 91 % 1014,9 hPa 0,0 l/m N 0,00 h 0 W/m 0,0 km/h (0 Bft)
12.07.2018 04:00 8,6 C 93 % 1014,7 hPa 0,0 l/m N 0,00 h 0 W/m 0,0 km/h (0 Bft)
12.07.2018 05:00 8,2 C 95 % 1014,7 hPa 0,0 l/m N 0,00 h 9 W/m 0,0 km/h (0 Bft)
12.07.2018 06:00 8,8 C 95 % 1014,8 hPa 0,0 l/m N 0,17 h 61 W/m 0,0 km/h (0 Bft)
12.07.2018 07:00 11,1 C 89 % 1014,9 hPa 0,0 l/m N 0,67 h 192 W/m 0,0 km/h (0 Bft)
12.07.2018 08:00 14,3 C 80 % 1015,1 hPa 0,0 l/m N 1,00 h 382 W/m 0,0 km/h (0 Bft)
12.07.2018 09:00 17,9 C 68 % 1015,1 hPa 0,0 l/m O 0,75 h 428 W/m 7,1 km/h (2 Bft)
12.07.2018 10:00 19,5 C 59 % 1015,2 hPa 0,0 l/m O 0,92 h 621 W/m 4,2 km/h (1 Bft)
12.07.2018 11:00 20,9 C 55 % 1014,9 hPa 0,0 l/m N-NW 0,92 h 762 W/m 6,8 km/h (2 Bft)
12.07.2018 12:00 21,2 C 58 % 1015,0 hPa 0,0 l/m N-NO 0,50 h 666 W/m 11,5 km/h (2 Bft)
12.07.2018 13:00 22,3 C 55 % 1015,0 hPa 0,0 l/m O-NO 0,67 h 761 W/m 12,1 km/h (2 Bft)
12.07.2018 14:00 22,7 C 56 % 1014,8 hPa 0,0 l/m N 0,33 h 596 W/m 12,8 km/h (3 Bft)
12.07.2018 15:00 23,1 C 52 % 1014,7 hPa 0,0 l/m O-NO 0,50 h 418 W/m 11,9 km/h (2 Bft)
12.07.2018 16:00 22,9 C 52 % 1014,6 hPa 0,0 l/m N-NO 0,33 h 441 W/m 10,5 km/h (2 Bft)
12.07.2018 17:00 24,0 C 49 % 1014,3 hPa 0,0 l/m N-NO 0,75 h 485 W/m 11,4 km/h (2 Bft)
12.07.2018 18:00 22,8 C 53 % 1014,5 hPa 0,0 l/m N-NO 0,33 h 243 W/m 10,5 km/h (2 Bft)
12.07.2018 19:00 22,0 C 54 % 1014,8 hPa 0,0 l/m N-NO 0,50 h 129 W/m 12,0 km/h (2 Bft)
12.07.2018 20:00 20,3 C 59 % 1015,0 hPa 0,0 l/m N-NO 0,00 h 35 W/m 7,1 km/h (2 Bft)
12.07.2018 21:00 18,2 C 69 % 1015,5 hPa 0,0 l/m N 0,08 h 8 W/m 0,0 km/h (0 Bft)
12.07.2018 22:00 17,6 C 73 % 1015,9 hPa 0,0 l/m N 0,00 h 0 W/m 0,3 km/h (0 Bft)
12.07.2018 23:00 17,0 C 76 % 1016,2 hPa 0,0 l/m N 0,00 h 0 W/m 0,0 km/h (0 Bft)
13.07.2018 00:00 16,8 C 78 % 1016,2 hPa 0,0 l/m N 0,00 h 0 W/m 0,0 km/h (0 Bft)
13.07.2018 01:00 16,1 C 80 % 1016,4 hPa 0,0 l/m N 0,00 h 0 W/m 0,0 km/h (0 Bft)
13.07.2018 02:00 15,4 C 84 % 1016,3 hPa 0,0 l/m N 0,00 h 0 W/m 0,3 km/h (0 Bft)
13.07.2018 03:00 15,2 C 83 % 1016,3 hPa 0,0 l/m N 0,00 h 0 W/m 0,4 km/h (0 Bft)
13.07.2018 04:00 15,2 C 82 % 1016,2 hPa 0,0 l/m N 0,00 h 0 W/m 1,2 km/h (1 Bft)
13.07.2018 05:00 14,9 C 81 % 1016,5 hPa 0,0 l/m N 0,08 h 9 W/m 0,0 km/h (0 Bft)
13.07.2018 06:00 14,2 C 85 % 1016,6 hPa 0,0 l/m N 0,00 h 40 W/m 0,0 km/h (0 Bft)
13.07.2018 07:00 15,7 C 81 % 1016,5 hPa 0,0 l/m N 0,42 h 158 W/m 0,5 km/h (0 Bft)
13.07.2018 08:00 17,7 C 74 % 1016,8 hPa 0,0 l/m N 0,67 h 314 W/m 2,9 km/h (1 Bft)
13.07.2018 09:00 20,2 C 66 % 1016,8 hPa 0,0 l/m N 0,83 h 431 W/m 2,9 km/h (1 Bft)
13.07.2018 10:00 22,1 C 57 % 1016,7 hPa 0,0 l/m O-NO 0,92 h 618 W/m 5,1 km/h (1 Bft)
13.07.2018 11:00 23,6 C 52 % 1016,6 hPa 0,0 l/m O 1,00 h 835 W/m 8,4 km/h (2 Bft)
13.07.2018 12:00 24,6 C 50 % 1016,6 hPa 0,0 l/m SO 0,67 h 770 W/m 8,2 km/h (2 Bft)
13.07.2018 13:00 24,2 C 50 % 1016,3 hPa 0,0 l/m N-NO 0,25 h 470 W/m 7,4 km/h (2 Bft)
13.07.2018 14:00 25,4 C 46 % 1015,8 hPa 0,0 l/m S 0,42 h 523 W/m 8,4 km/h (2 Bft)
13.07.2018 15:00 25,7 C 43 % 1015,5 hPa 0,0 l/m S 0,50 h 567 W/m 6,5 km/h (2 Bft)
13.07.2018 16:00 25,7 C 43 % 1015,2 hPa 0,0 l/m O-SO 0,25 h 338 W/m 4,8 km/h (1 Bft)
13.07.2018 17:00 25,5 C 43 % 1015,0 hPa 0,0 l/m N 0,25 h 229 W/m 3,7 km/h (1 Bft)
13.07.2018 18:00 25,9 C 42 % 1014,8 hPa 0,0 l/m N 0,83 h 336 W/m 1,7 km/h (1 Bft)
13.07.2018 19:00 25,2 C 44 % 1014,7 hPa 0,0 l/m N 0,33 h 115 W/m 1,9 km/h (1 Bft)
13.07.2018 20:00 22,6 C 59 % 1014,6 hPa 0,0 l/m N 0,17 h 47 W/m 0,0 km/h (0 Bft)
13.07.2018 21:00 19,6 C 65 % 1015,0 hPa 0,0 l/m N 0,08 h 8 W/m 0,0 km/h (0 Bft)
13.07.2018 22:00 17,8 C 73 % 1015,5 hPa 0,0 l/m N 0,00 h 0 W/m 0,8 km/h (0 Bft)
13.07.2018 23:00 16,3 C 78 % 1015,7 hPa 0,0 l/m N 0,00 h 0 W/m 0,0 km/h (0 Bft)
14.07.2018 00:00 15,7 C 81 % 1015,6 hPa 0,0 l/m N 0,00 h 0 W/m 0,3 km/h (0 Bft)
14.07.2018 01:00 16,2 C 80 % 1015,6 hPa 0,0 l/m N 0,00 h 0 W/m 0,7 km/h (0 Bft)
14.07.2018 02:00 16,8 C 77 % 1015,4 hPa 0,0 l/m O 0,00 h 0 W/m 1,5 km/h (1 Bft)
14.07.2018 03:00 16,5 C 79 % 1015,4 hPa 0,0 l/m S 0,00 h 0 W/m 2,1 km/h (1 Bft)
14.07.2018 04:00 15,6 C 83 % 1015,4 hPa 0,0 l/m N 0,00 h 0 W/m 0,5 km/h (0 Bft)
14.07.2018 05:00 15,3 C 83 % 1015,6 hPa 0,0 l/m N 0,08 h 8 W/m 1,1 km/h (0 Bft)
14.07.2018 06:00 14,9 C 87 % 1015,8 hPa 0,0 l/m N 0,00 h 35 W/m 0,3 km/h (0 Bft)
14.07.2018 07:00 15,7 C 86 % 1015,9 hPa 0,0 l/m N 0,50 h 155 W/m 0,0 km/h (0 Bft)
14.07.2018 08:00 18,8 C 78 % 1015,9 hPa 0,0 l/m N 0,83 h 334 W/m 0,5 km/h (0 Bft)
14.07.2018 09:00 21,6 C 69 % 1015,8 hPa 0,0 l/m S 0,58 h 428 W/m 4,3 km/h (1 Bft)
14.07.2018 10:00 23,8 C 60 % 1015,5 hPa 0,0 l/m SO 0,83 h 597 W/m 5,9 km/h (2 Bft)
14.07.2018 11:00 25,1 C 54 % 1015,3 hPa 0,0 l/m S-SO 0,67 h 577 W/m 6,7 km/h (2 Bft)
14.07.2018 12:00 24,8 C 54 % 1014,9 hPa 0,0 l/m N 0,50 h 569 W/m 3,2 km/h (1 Bft)
14.07.2018 13:00 27,5 C 47 % 1014,4 hPa 0,0 l/m S-SW 0,83 h 893 W/m 15,3 km/h (3 Bft)
14.07.2018 14:00 27,5 C 43 % 1013,9 hPa 0,0 l/m N 0,42 h 509 W/m 8,6 km/h (2 Bft)
14.07.2018 15:00 27,8 C 42 % 1013,4 hPa 0,0 l/m SO 0,50 h 515 W/m 9,3 km/h (2 Bft)
14.07.2018 16:00 26,7 C 45 % 1013,1 hPa 0,0 l/m N-NO 0,17 h 288 W/m 15,3 km/h (3 Bft)
14.07.2018 17:00 26,4 C 47 % 1012,9 hPa 0,0 l/m O-NO 0,75 h 442 W/m 17,4 km/h (3 Bft)
14.07.2018 18:00 26,9 C 45 % 1012,8 hPa 0,0 l/m NO 0,92 h 383 W/m 14,4 km/h (3 Bft)
14.07.2018 19:00 26,0 C 48 % 1012,5 hPa 0,0 l/m O-NO 0,83 h 164 W/m 12,4 km/h (3 Bft)
14.07.2018 20:00 24,2 C 55 % 1012,6 hPa 0,0 l/m O 0,00 h 34 W/m 6,0 km/h (2 Bft)
14.07.2018 21:00 21,6 C 66 % 1012,9 hPa 0,0 l/m N 0,08 h 7 W/m 1,3 km/h (1 Bft)
14.07.2018 22:00 19,8 C 72 % 1013,3 hPa 0,0 l/m N 0,00 h 0 W/m 0,1 km/h (0 Bft)
14.07.2018 23:00 18,5 C 78 % 1013,3 hPa 0,0 l/m N 0,00 h 0 W/m 0,0 km/h (0 Bft)
15.07.2018 00:00 18,2 C 79 % 1013,3 hPa 0,0 l/m N 0,00 h 0 W/m 1,2 km/h (1 Bft)
15.07.2018 01:00 18,1 C 79 % 1013,3 hPa 0,0 l/m N 0,00 h 0 W/m 1,9 km/h (1 Bft)
15.07.2018 02:00 17,5 C 82 % 1013,0 hPa 0,0 l/m N 0,00 h 0 W/m 0,3 km/h (0 Bft)
15.07.2018 03:00 16,9 C 84 % 1012,8 hPa 0,0 l/m N 0,00 h 0 W/m 0,0 km/h (0 Bft)
15.07.2018 04:00 16,2 C 88 % 1012,9 hPa 0,0 l/m N 0,00 h 0 W/m 0,4 km/h (0 Bft)
15.07.2018 05:00 15,8 C 88 % 1013,1 hPa 0,0 l/m N 0,00 h 7 W/m 0,0 km/h (0 Bft)
15.07.2018 06:00 15,1 C 92 % 1012,8 hPa 0,0 l/m N 0,08 h 46 W/m 0,3 km/h (0 Bft)
15.07.2018 07:00 17,2 C 88 % 1013,0 hPa 0,0 l/m SO 0,83 h 213 W/m 5,5 km/h (1 Bft)
15.07.2018 08:00 20,3 C 76 % 1013,3 hPa 0,0 l/m SW 1,00 h 365 W/m 10,4 km/h (2 Bft)
15.07.2018 09:00 21,9 C 69 % 1013,0 hPa 0,0 l/m SW 0,67 h 412 W/m 9,5 km/h (2 Bft)
15.07.2018 10:00 22,8 C 62 % 1012,8 hPa 0,0 l/m SW 0,42 h 445 W/m 11,4 km/h (2 Bft)
15.07.2018 11:00 21,6 C 71 % 1013,0 hPa 0,0 l/m S-SW 0,17 h 381 W/m 15,3 km/h (3 Bft)
15.07.2018 12:00 21,7 C 65 % 1012,7 hPa 0,0 l/m SW 0,17 h 345 W/m 14,1 km/h (3 Bft)
15.07.2018 13:00 25,3 C 53 % 1012,0 hPa 0,0 l/m S-SW 1,00 h 924 W/m 12,1 km/h (2 Bft)
15.07.2018 14:00 25,8 C 48 % 1011,5 hPa 0,0 l/m O 0,17 h 372 W/m 7,9 km/h (2 Bft)
15.07.2018 15:00 26,4 C 47 % 1011,2 hPa 0,0 l/m O-NO 0,92 h 707 W/m 13,4 km/h (3 Bft)
15.07.2018 16:00 26,9 C 44 % 1010,8 hPa 0,0 l/m NO 0,75 h 578 W/m 11,4 km/h (2 Bft)
15.07.2018 17:00 25,1 C 45 % 1011,1 hPa 0,0 l/m NO 0,25 h 209 W/m 21,6 km/h (4 Bft)
15.07.2018 18:00 21,4 C 66 % 1010,8 hPa 0,2 l/m O-NO 0,75 h 276 W/m 15,2 km/h (3 Bft)
15.07.2018 19:00 21,5 C 67 % 1011,3 hPa 0,0 l/m O-SO 0,17 h 121 W/m 5,5 km/h (1 Bft)
15.07.2018 20:00 21,1 C 68 % 1011,4 hPa 0,0 l/m N 0,00 h 41 W/m 0,0 km/h (0 Bft)
15.07.2018 21:00 19,0 C 78 % 1011,7 hPa 0,0 l/m N 0,00 h 7 W/m 0,4 km/h (0 Bft)
15.07.2018 22:00 17,3 C 84 % 1012,1 hPa 0,0 l/m N 0,00 h 0 W/m 0,0 km/h (0 Bft)
15.07.2018 23:00 17,2 C 83 % 1012,5 hPa 0,0 l/m W-SW 0,00 h 0 W/m 10,2 km/h (2 Bft)
Min-Datum _ 12.07.18 09.07.18 15.07.18 - - - - 09.07.18
_ Min-Zeit 05:25 16:15 18:30 - - - - 00:00
Minimum _ 8,1 C 37 % 1010,3 hPa - - - - 0,0 km/h (0 Bft)
Max-Datum _ 14.07.18 12.07.18 09.07.18 15.07.18 - 09.07.18 12.07.18 10.07.18
_ Max-Zeit 15:25 06:25 00:00 18:00 - 05:45 12:35 17:20
Maximum _ 28,5 C 96 % 1018,2 hPa 0,2 l/m - 0,08 h 1167 W/m 27,4 km/h
N-NW (4 Bft)
Durchschnitt _ 18,9 C 67 % 1014,2 hPa #0,2 l/m N-NO #51:30 h 327 W/m 5,5 km/h (1 Bft)